createdAt,value
2019-02-15T00:05:20.954Z,92.70
2019-02-15T00:15:24.714Z,92.80
2019-02-15T00:25:28.461Z,92.90
2019-02-15T00:35:32.233Z,93.00
2019-02-15T00:45:44.060Z,93.10
2019-02-15T00:56:12.778Z,93.10
2019-02-15T01:06:26.650Z,93.00
2019-02-15T01:16:30.550Z,93.20
2019-02-15T01:26:59.633Z,93.30
2019-02-15T01:37:13.906Z,93.20
2019-02-15T01:47:21.677Z,93.00
2019-02-15T01:57:25.422Z,93.10
2019-02-15T02:07:29.314Z,93.00
2019-02-15T02:17:33.078Z,93.10
2019-02-15T02:27:37.084Z,93.20
2019-02-15T02:37:40.846Z,93.10
2019-02-15T02:47:44.593Z,93.10
2019-02-15T02:57:48.574Z,93.00
2019-02-15T03:07:52.363Z,93.00
2019-02-15T03:17:56.165Z,93.10
2019-02-15T03:27:59.947Z,93.20
2019-02-15T03:38:12.746Z,93.20
2019-02-15T03:48:16.493Z,93.10
2019-02-15T03:58:20.309Z,93.30
2019-02-15T04:08:24.076Z,93.30
2019-02-15T04:18:27.835Z,93.30
2019-02-15T04:28:31.588Z,93.40
2019-02-15T04:38:35.372Z,93.50
2019-02-15T04:48:39.135Z,93.40
2019-02-15T04:58:42.911Z,93.60
2019-02-15T05:08:46.677Z,93.60
2019-02-15T05:18:50.458Z,93.50
2019-02-15T05:28:54.254Z,93.70
2019-02-15T05:38:58.201Z,93.70
2019-02-15T05:49:02.058Z,93.70
2019-02-15T05:59:05.798Z,93.80
2019-02-15T06:09:09.596Z,93.80
2019-02-15T06:19:13.419Z,93.90
2019-02-15T06:29:17.194Z,94.00
2019-02-15T06:39:20.976Z,94.00
2019-02-15T06:49:24.734Z,93.80
2019-02-15T06:59:40.306Z,93.80
2019-02-15T07:09:44.279Z,93.90
2019-02-15T07:19:48.042Z,93.80
2019-02-15T07:29:51.858Z,93.80
2019-02-15T07:39:55.653Z,93.80
2019-02-15T07:49:59.411Z,93.90
2019-02-15T08:00:03.170Z,94.00
2019-02-15T08:10:07.950Z,94.00
2019-02-15T08:20:11.812Z,94.00
2019-02-15T08:30:15.835Z,94.10
2019-02-15T08:40:19.603Z,94.00
2019-02-15T08:50:23.346Z,93.90
2019-02-15T09:00:27.188Z,93.90
2019-02-15T09:10:30.957Z,93.80
2019-02-15T09:20:34.755Z,93.60
2019-02-15T09:30:38.575Z,93.10
2019-02-15T09:40:42.335Z,92.50
2019-02-15T09:50:46.075Z,92.30
2019-02-15T10:00:49.837Z,92.00
2019-02-15T10:10:53.612Z,91.70
2019-02-15T10:20:57.433Z,91.20
2019-02-15T10:31:01.291Z,90.70
2019-02-15T10:41:05.214Z,90.30
2019-02-15T10:51:08.986Z,90.30
2019-02-15T11:01:12.722Z,89.60
2019-02-15T11:11:16.547Z,89.10
2019-02-15T11:21:20.322Z,87.10
2019-02-15T11:31:24.073Z,86.20
2019-02-15T11:41:27.906Z,85.00
2019-02-15T11:51:31.649Z,84.50
2019-02-15T12:01:35.502Z,84.30
2019-02-15T12:11:39.250Z,83.40
2019-02-15T12:21:43.030Z,83.10
2019-02-15T12:31:46.814Z,81.90
2019-02-15T12:41:50.602Z,81.80
2019-02-15T12:51:54.366Z,79.80
2019-02-15T13:01:58.118Z,80.20
2019-02-15T13:12:01.865Z,80.00
2019-02-15T13:22:05.714Z,79.70
2019-02-15T13:32:09.903Z,78.40
2019-02-15T13:42:13.710Z,78.90
2019-02-15T13:52:17.449Z,78.20
2019-02-15T14:02:21.503Z,77.50
2019-02-15T14:12:25.359Z,76.70
2019-02-15T14:22:29.234Z,76.00
2019-02-15T14:32:33.162Z,75.30
2019-02-15T14:42:37.957Z,76.40
2019-02-15T14:52:41.723Z,75.60
2019-02-15T15:02:45.505Z,74.60
2019-02-15T15:12:50.262Z,71.50
2019-02-15T15:22:54.033Z,72.30
2019-02-15T15:32:57.826Z,72.10
2019-02-15T15:43:01.586Z,70.90
2019-02-15T15:53:07.843Z,70.40
2019-02-15T16:03:11.826Z,70.90
2019-02-15T16:13:15.629Z,69.00
2019-02-15T16:23:19.414Z,69.20
2019-02-15T16:33:23.193Z,69.80
2019-02-15T16:43:26.933Z,70.70
2019-02-15T16:53:30.687Z,71.60
2019-02-15T17:03:34.489Z,72.50
2019-02-15T17:13:38.257Z,74.70
2019-02-15T17:23:42.010Z,75.60
2019-02-15T17:33:46.006Z,76.00
2019-02-15T17:43:55.590Z,76.50
2019-02-15T17:53:59.338Z,78.00
2019-02-15T18:04:03.110Z,77.50
2019-02-15T18:14:06.858Z,77.50
2019-02-15T18:24:10.658Z,77.20
2019-02-15T18:34:14.414Z,76.90
2019-02-15T18:44:18.407Z,77.20
2019-02-15T18:54:22.178Z,77.70
2019-02-15T19:04:25.942Z,78.00
2019-02-15T19:14:30.070Z,78.70
2019-02-15T19:24:33.863Z,77.40
2019-02-15T19:34:37.637Z,76.40
2019-02-15T19:44:41.373Z,76.10
2019-02-15T19:54:45.369Z,75.80
2019-02-15T20:04:49.369Z,76.20
2019-02-15T20:14:53.141Z,77.10
2019-02-15T20:24:58.695Z,78.10
2019-02-15T20:35:02.582Z,78.80
2019-02-15T20:45:08.534Z,79.60
2019-02-15T20:55:13.335Z,80.40
2019-02-15T21:05:17.101Z,80.70
2019-02-15T21:15:20.929Z,81.00
2019-02-15T21:25:24.732Z,80.60
2019-02-15T21:35:28.519Z,81.20
2019-02-15T21:45:32.349Z,82.00
2019-02-15T21:55:36.154Z,82.50
2019-02-15T22:05:39.911Z,83.00
2019-02-15T22:15:43.678Z,83.20
2019-02-15T22:25:47.447Z,83.60
2019-02-15T22:35:51.193Z,83.70
2019-02-15T22:45:55.051Z,82.90
2019-02-15T22:55:58.819Z,83.10
2019-02-15T23:06:02.636Z,83.80
2019-02-15T23:16:06.410Z,84.60
2019-02-15T23:26:10.200Z,84.70
2019-02-15T23:36:13.941Z,84.80
2019-02-15T23:46:17.689Z,84.90
2019-02-15T23:56:21.447Z,85.10
